Time;durP1;ratioP1;P1;durP2;ratioP2;P2;SDS_P1;SDS_P2;PMS_P1;PMS_P2;Temp;Humidity;BMP_temperature;BMP_pressure;BME280_temperature;BME280_humidity;BME280_pressure;Samples;Min_cycle;Max_cycle;Signal;HPM_P1;HPM_P2
2022/04/01 00:01:52;;;;;;;;;;;;;;;1.99;76.97;96990.00;6321346;28;19920;-63
2022/04/01 00:04:53;;;;;;;;;;;;;;;2.02;76.36;96984.72;6321724;28;20415;-63
2022/04/01 00:07:54;;;;;;;;;;;;;;;2.08;75.71;96987.13;6321153;28;19920;-64
2022/04/01 00:10:57;;;;;;;;;;;;;;;1.88;76.33;96997.25;6322147;28;19920;-64
2022/04/01 00:13:59;;;;;;;;;;;;;;;1.91;75.98;96982.44;6321403;28;19927;-63
2022/04/01 00:17:00;;;;;;;;;;;;;;;1.84;76.46;96983.53;6321650;28;19920;-64
2022/04/01 00:20:04;;;;;;;;;;;;;;;1.75;76.36;96974.22;6320977;28;19920;-64
2022/04/01 00:23:12;;;;;;;;;;;;;;;1.68;76.27;96970.13;6321917;28;20408;-64
2022/04/01 00:26:15;;;;;;;;;;;;;;;1.76;76.64;96962.97;6321590;28;19928;-64
2022/04/01 00:29:20;;;;;;;;;;;;;;;1.62;76.69;96965.09;6321416;28;19962;-63
2022/04/01 00:32:22;;;;;;;;;;;;;;;1.49;77.22;96968.91;6321370;28;19916;-64
2022/04/01 00:35:23;;;;;;;;;;;;;;;1.52;77.80;96964.50;6321233;28;20300;-63
2022/04/01 00:38:24;;;;;;;;;;;;;;;1.69;76.91;96965.78;6320540;28;19926;-63
2022/04/01 00:41:26;;;;;;;;;;;;;;;1.71;77.10;96957.06;6321090;28;20361;-64
2022/04/01 00:44:30;;;;;;;;;;;;;;;1.59;77.09;96952.22;6320944;28;19924;-64
2022/04/01 00:47:33;;;;;;;;;;;;;;;1.73;77.07;96957.88;6321386;28;19920;-63
2022/04/01 00:50:34;;;;;;;;;;;;;;;1.60;77.41;96959.09;6320966;28;19981;-64
2022/04/01 00:53:38;;;;;;;;;;;;;;;1.59;77.53;96965.19;6320836;28;19969;-64
2022/04/01 00:56:42;;;;;;;;;;;;;;;1.55;77.82;96959.22;6321370;28;19920;-63
2022/04/01 00:59:43;;;;;;;;;;;;;;;1.71;76.93;96945.84;6320568;28;19920;-63
2022/04/01 01:02:44;;;;;;;;;;;;;;;1.55;77.18;96954.03;6320619;28;20415;-64
2022/04/01 01:05:48;;;;;;;;;;;;;;;1.89;76.92;96944.44;6321039;28;19920;-63
2022/04/01 01:08:51;;;;;;;;;;;;;;;1.92;76.43;96952.13;6320924;28;19927;-63
2022/04/01 01:11:53;;;;;;;;;;;;;;;1.93;76.14;96948.66;6320016;28;20416;-63
2022/04/01 01:15:06;;;;;;;;;;;;;;;1.93;75.99;96944.31;6320729;28;19924;-64
2022/04/01 01:18:07;;;;;;;;;;;;;;;1.76;76.27;96942.22;6320558;28;19920;-64
2022/04/01 01:21:09;;;;;;;;;;;;;;;1.67;76.92;96950.28;6319962;28;20014;-63
2022/04/01 01:24:11;;;;;;;;;;;;;;;1.67;77.16;96942.50;6320183;28;19957;-63
2022/04/01 01:27:13;;;;;;;;;;;;;;;1.80;76.94;96938.63;6334950;28;19920;-64
2022/04/01 01:30:15;;;;;;;;;;;;;;;1.95;76.11;96936.47;6319180;28;19927;-64
2022/04/01 01:33:21;;;;;;;;;;;;;;;1.82;76.83;96940.34;6320537;28;20316;-64
2022/04/01 01:36:25;;;;;;;;;;;;;;;1.97;76.74;96939.88;6319865;28;19920;-64
2022/04/01 01:39:27;;;;;;;;;;;;;;;1.99;76.28;96933.75;6320282;28;20364;-64
2022/04/01 01:42:30;;;;;;;;;;;;;;;1.73;76.33;96931.94;6320047;28;20022;-64
2022/04/01 01:45:31;;;;;;;;;;;;;;;1.73;77.58;96936.28;6319612;28;19920;-64
2022/04/01 01:48:37;;;;;;;;;;;;;;;1.81;76.61;96931.69;6319093;28;19919;-64
2022/04/01 01:54:58;;;;;;;;;;;;;;;1.87;77.50;96934.13;6320015;28;19926;-64
2022/04/01 01:58:03;;;;;;;;;;;;;;;1.79;77.34;96929.16;6320402;28;20301;-64
2022/04/01 02:01:05;;;;;;;;;;;;;;;1.99;77.24;96932.91;6319713;28;19919;-64
2022/04/01 02:04:06;;;;;;;;;;;;;;;2.03;77.26;96924.13;6319195;28;19927;-62
2022/04/01 02:07:07;;;;;;;;;;;;;;;2.29;76.73;96919.88;6318575;28;20377;-64
2022/04/01 02:10:08;;;;;;;;;;;;;;;2.15;76.09;96923.78;6319610;28;19926;-64
2022/04/01 02:13:13;;;;;;;;;;;;;;;2.02;77.16;96925.03;6317933;28;19927;-64
2022/04/01 02:16:19;;;;;;;;;;;;;;;2.05;76.86;96911.97;6320206;28;19961;-64
2022/04/01 02:19:23;;;;;;;;;;;;;;;2.13;76.86;96928.16;6318769;28;19920;-64
2022/04/01 02:22:27;;;;;;;;;;;;;;;2.33;76.99;96937.06;6320038;28;19935;-64
2022/04/01 02:25:31;;;;;;;;;;;;;;;2.47;76.29;96942.69;6322568;28;20028;-63
2022/04/01 02:28:37;;;;;;;;;;;;;;;2.61;75.74;96937.06;6324144;28;19965;-65
2022/04/01 02:31:38;;;;;;;;;;;;;;;2.55;75.25;96940.69;6324019;28;20057;-63
2022/04/01 02:34:42;;;;;;;;;;;;;;;2.50;75.50;96932.19;6323737;28;20312;-64
2022/04/01 02:37:43;;;;;;;;;;;;;;;2.41;75.29;96935.94;6323220;28;20334;-64
2022/04/01 02:40:44;;;;;;;;;;;;;;;2.30;75.95;96930.22;6323942;28;19931;-64
2022/04/01 02:43:45;;;;;;;;;;;;;;;2.22;76.32;96920.06;6323709;28;19920;-63
2022/04/01 02:46:46;;;;;;;;;;;;;;;2.13;76.31;96909.13;6323672;28;20635;-64
2022/04/01 02:49:50;;;;;;;;;;;;;;;2.30;76.04;96906.03;6324032;28;19927;-63
2022/04/01 02:52:53;;;;;;;;;;;;;;;2.25;76.52;96913.94;6323167;28;19939;-64
2022/04/01 02:55:56;;;;;;;;;;;;;;;2.28;76.33;96913.84;6323663;28;20331;-64
2022/04/01 02:58:58;;;;;;;;;;;;;;;2.47;77.02;96908.94;6323396;28;19916;-64
2022/04/01 03:02:02;;;;;;;;;;;;;;;2.66;76.56;96907.44;6322868;28;19920;-64
2022/04/01 03:05:04;;;;;;;;;;;;;;;2.73;76.61;96891.63;6322699;28;19916;-64
2022/04/01 03:08:06;;;;;;;;;;;;;;;2.93;76.13;96900.44;6323098;28;19942;-62
2022/04/01 03:11:12;;;;;;;;;;;;;;;3.06;75.68;96890.50;6323393;28;20355;-64
2022/04/01 03:14:18;;;;;;;;;;;;;;;3.17;75.72;96897.91;6323194;28;20356;-64
2022/04/01 03:17:19;;;;;;;;;;;;;;;3.42;74.89;96890.06;6323100;28;19927;-65
2022/04/01 03:20:20;;;;;;;;;;;;;;;3.57;74.10;96894.72;6322809;28;19927;-64
2022/04/01 03:23:24;;;;;;;;;;;;;;;3.76;73.63;96900.09;6323177;28;19919;-64
2022/04/01 03:26:25;;;;;;;;;;;;;;;4.00;72.85;96898.31;6322366;28;20393;-64
2022/04/01 03:29:26;;;;;;;;;;;;;;;4.10;72.56;96909.22;6322797;28;19927;-64
2022/04/01 03:32:27;;;;;;;;;;;;;;;4.27;72.20;96913.78;6322317;28;20397;-65
2022/04/01 03:35:29;;;;;;;;;;;;;;;4.55;71.01;96910.09;6321974;28;20001;-64
2022/04/01 03:38:31;;;;;;;;;;;;;;;4.65;70.51;96901.84;6322556;28;20417;-64
2022/04/01 03:41:35;;;;;;;;;;;;;;;4.83;69.69;96887.19;6322649;28;19985;-64
2022/04/01 03:44:41;;;;;;;;;;;;;;;4.99;69.54;96890.00;6322062;28;20361;-64
2022/04/01 03:48:14;;;;;;;;;;;;;;;5.30;68.24;96899.97;6321755;28;19920;-64
2022/04/01 03:51:25;;;;;;;;;;;;;;;5.61;67.11;96889.03;6288885;28;19920;-64
2022/04/01 03:54:30;;;;;;;;;;;;;;;5.91;65.80;96890.31;6322196;28;19989;-64
2022/04/01 03:57:35;;;;;;;;;;;;;;;6.13;64.67;96903.25;6321712;28;19920;-64
2022/04/01 04:00:40;;;;;;;;;;;;;;;6.19;64.26;96885.53;6322072;28;19920;-65
2022/04/01 04:03:44;;;;;;;;;;;;;;;6.23;64.15;96875.78;6321413;28;20101;-65
2022/04/01 04:06:45;;;;;;;;;;;;;;;6.30;63.46;96872.78;6321737;28;19920;-64
2022/04/01 04:09:46;;;;;;;;;;;;;;;6.26;63.54;96876.50;6320412;28;19926;-64
2022/04/01 04:12:48;;;;;;;;;;;;;;;6.37;63.19;96867.28;6321290;28;19942;-64
2022/04/01 04:15:51;;;;;;;;;;;;;;;6.36;62.55;96871.66;6321568;28;20304;-64
2022/04/01 04:18:52;;;;;;;;;;;;;;;6.42;62.46;96871.34;6321497;28;19919;-65
2022/04/01 04:22:09;;;;;;;;;;;;;;;6.58;62.09;96876.69;6320642;28;19927;-64
2022/04/01 04:25:16;;;;;;;;;;;;;;;6.84;60.78;96878.03;6321713;28;20018;-64
2022/04/01 04:28:24;;;;;;;;;;;;;;;6.72;61.35;96871.63;6321662;28;19919;-65
2022/04/01 04:31:29;;;;;;;;;;;;;;;6.61;61.67;96862.63;6321408;28;20389;-64
2022/04/01 04:34:43;;;;;;;;;;;;;;;6.66;61.27;96869.34;6320770;28;20403;-64
2022/04/01 04:37:45;;;;;;;;;;;;;;;6.91;60.33;96862.88;6321192;28;19970;-65
2022/04/01 04:40:46;;;;;;;;;;;;;;;6.87;60.53;96856.09;6321155;28;19927;-63
2022/04/01 04:43:48;;;;;;;;;;;;;;;6.99;60.14;96855.47;6321486;28;19919;-64
2022/04/01 04:46:50;;;;;;;;;;;;;;;7.09;59.97;96861.94;6319726;28;19927;-64
2022/04/01 04:49:54;;;;;;;;;;;;;;;7.11;59.77;96846.19;6320535;28;19919;-64
2022/04/01 04:52:57;;;;;;;;;;;;;;;7.18;59.66;96850.16;6321061;28;20385;-64
2022/04/01 04:56:02;;;;;;;;;;;;;;;7.29;59.33;96863.53;6336742;28;19919;-65
2022/04/01 04:59:06;;;;;;;;;;;;;;;7.35;59.03;96857.97;6320759;28;19926;-64
2022/04/01 05:02:10;;;;;;;;;;;;;;;7.50;58.41;96856.34;6320440;28;20305;-64
2022/04/01 05:05:30;;;;;;;;;;;;;;;7.54;58.18;96873.56;6320496;28;19926;-64
2022/04/01 05:08:49;;;;;;;;;;;;;;;7.66;57.84;96866.84;6319988;28;19920;-64
2022/04/01 05:11:53;;;;;;;;;;;;;;;7.88;57.40;96884.88;6320643;28;19998;-65
2022/04/01 05:15:08;;;;;;;;;;;;;;;8.04;56.84;96867.41;6320690;28;20115;-64
2022/04/01 05:18:09;;;;;;;;;;;;;;;8.03;56.69;96878.78;6318903;28;19927;-65
2022/04/01 05:21:20;;;;;;;;;;;;;;;8.20;56.18;96871.78;6320603;28;19966;-64
2022/04/01 05:24:26;;;;;;;;;;;;;;;8.41;55.56;96869.78;6319943;28;19927;-64
2022/04/01 05:27:30;;;;;;;;;;;;;;;8.92;54.11;96870.34;6320153;28;19927;-64
2022/04/01 05:30:38;;;;;;;;;;;;;;;10.94;50.51;96867.44;6320660;28;20006;-64
2022/04/01 05:33:55;;;;;;;;;;;;;;;12.98;44.82;96867.13;6320596;28;19920;-64
2022/04/01 05:36:57;;;;;;;;;;;;;;;14.90;40.16;96853.94;6320224;28;19920;-65
2022/04/01 05:39:58;;;;;;;;;;;;;;;16.39;37.30;96860.66;6320146;28;19927;-65
2022/04/01 05:43:00;;;;;;;;;;;;;;;17.53;34.87;96858.34;6320292;28;19920;-65
2022/04/01 05:46:04;;;;;;;;;;;;;;;17.96;33.40;96860.50;6320205;28;20004;-65
2022/04/01 05:49:05;;;;;;;;;;;;;;;18.50;32.35;96866.00;6319391;28;20306;-64
2022/04/01 05:52:08;;;;;;;;;;;;;;;19.17;31.44;96858.53;6319903;28;20397;-64
2022/04/01 05:55:12;;;;;;;;;;;;;;;19.48;30.56;96867.78;6319750;28;19923;-65
2022/04/01 05:58:14;;;;;;;;;;;;;;;19.03;30.95;96858.06;6322754;28;19934;-64
2022/04/01 06:01:35;;;;;;;;;;;;;;;18.03;31.95;96858.06;6325043;28;19920;-65
2022/04/01 06:04:42;;;;;;;;;;;;;;;17.22;33.53;96848.72;6324304;28;19920;-65
2022/04/01 06:07:51;;;;;;;;;;;;;;;18.24;32.68;96850.69;6324652;28;19920;-65
2022/04/01 06:11:02;;;;;;;;;;;;;;;19.82;30.55;96850.22;6324836;28;19920;-65
2022/04/01 06:14:14;;;;;;;;;;;;;;;21.25;28.83;96849.34;6324174;28;19920;-65
2022/04/01 06:17:38;;;;;;;;;;;;;;;22.47;26.91;96847.47;6324442;28;19920;-64
2022/04/01 06:20:46;;;;;;;;;;;;;;;23.37;25.24;96838.88;6324530;28;19920;-64
2022/04/01 06:23:59;;;;;;;;;;;;;;;23.77;24.55;96842.25;6324092;28;19920;-65
2022/04/01 06:27:03;;;;;;;;;;;;;;;22.92;25.46;96852.09;6323363;28;20352;-65
2022/04/01 06:30:05;;;;;;;;;;;;;;;23.15;24.69;96836.03;6323883;28;19927;-65
2022/04/01 06:33:09;;;;;;;;;;;;;;;23.40;24.34;96833.97;6323443;28;20297;-65
2022/04/01 06:36:13;;;;;;;;;;;;;;;23.96;23.39;96828.28;6324033;28;19920;-65
2022/04/01 06:39:20;;;;;;;;;;;;;;;23.84;23.09;96829.78;6323581;28;19943;-66
2022/04/01 06:42:25;;;;;;;;;;;;;;;23.39;24.05;96839.56;6323637;28;19920;-65
2022/04/01 06:45:26;;;;;;;;;;;;;;;23.39;23.95;96834.19;6322062;28;19920;-65
2022/04/01 06:48:30;;;;;;;;;;;;;;;24.20;23.05;96836.09;6322995;28;19920;-65
2022/04/01 06:51:31;;;;;;;;;;;;;;;24.47;22.31;96825.69;6323998;28;19920;-64
2022/04/01 06:54:32;;;;;;;;;;;;;;;24.01;22.90;96836.63;6323351;28;19927;-64
2022/04/01 06:57:36;;;;;;;;;;;;;;;23.48;23.82;96820.50;6323790;28;20019;-65
2022/04/01 07:00:43;;;;;;;;;;;;;;;24.49;22.38;96829.03;6323737;28;19920;-65
2022/04/01 07:03:44;;;;;;;;;;;;;;;24.41;22.40;96826.41;6322925;28;20003;-65
2022/04/01 07:06:46;;;;;;;;;;;;;;;24.50;22.36;96825.31;6322716;28;19920;-65
2022/04/01 07:09:47;;;;;;;;;;;;;;;24.55;22.33;96822.91;6322556;28;19931;-65
2022/04/01 07:12:49;;;;;;;;;;;;;;;24.07;22.57;96811.69;6323134;28;19920;-64
2022/04/01 07:15:53;;;;;;;;;;;;;;;23.86;22.96;96830.41;6323512;28;19920;-65
2022/04/01 07:19:01;;;;;;;;;;;;;;;23.93;22.85;96823.28;6323193;28;19924;-64
2022/04/01 07:22:02;;;;;;;;;;;;;;;24.45;22.29;96830.41;6321189;28;19920;-65
2022/04/01 07:25:03;;;;;;;;;;;;;;;25.03;21.91;96817.00;6321385;28;19927;-64
2022/04/01 07:28:09;;;;;;;;;;;;;;;24.99;22.13;96813.00;6323298;28;19920;-64
2022/04/01 07:34:34;;;;;;;;;;;;;;;25.85;21.24;96796.81;6284853;28;19924;-64
2022/04/01 07:37:35;;;;;;;;;;;;;;;26.86;20.27;96792.53;6322758;28;19927;-64
2022/04/01 07:40:40;;;;;;;;;;;;;;;26.53;20.02;96794.28;6323239;28;19927;-65
2022/04/01 07:43:41;;;;;;;;;;;;;;;25.07;21.22;96783.28;6322069;28;20061;-64
2022/04/01 07:46:45;;;;;;;;;;;;;;;24.29;22.25;96790.25;6322755;28;20392;-65
2022/04/01 07:49:49;;;;;;;;;;;;;;;24.31;22.29;96780.97;6322852;28;20438;-66
2022/04/01 07:52:51;;;;;;;;;;;;;;;24.26;22.59;96779.88;6322021;28;19920;-65
2022/04/01 07:55:54;;;;;;;;;;;;;;;24.67;21.92;96774.81;6322707;28;19920;-66
2022/04/01 07:58:58;;;;;;;;;;;;;;;23.72;22.84;96771.13;6322326;28;19924;-65
2022/04/01 08:02:02;;;;;;;;;;;;;;;20.97;26.20;96768.56;6321725;28;19919;-65
2022/04/01 08:05:07;;;;;;;;;;;;;;;19.10;28.99;96764.13;6322271;28;19927;-65
2022/04/01 08:08:08;;;;;;;;;;;;;;;18.22;30.13;96755.94;6322039;28;19926;-64
2022/04/01 08:11:11;;;;;;;;;;;;;;;17.88;31.18;96752.06;6322144;28;19920;-65
2022/04/01 08:14:12;;;;;;;;;;;;;;;18.64;29.93;96764.22;6322075;28;19920;-65
2022/04/01 08:17:14;;;;;;;;;;;;;;;20.08;28.57;96768.22;6321651;28;19920;-65
2022/04/01 08:20:18;;;;;;;;;;;;;;;21.39;26.83;96775.59;6320864;28;19920;-68
2022/04/01 08:23:19;;;;;;;;;;;;;;;21.76;26.21;96791.09;6321849;28;19916;-64
2022/04/01 08:26:22;;;;;;;;;;;;;;;20.75;27.26;96765.56;6321908;28;19927;-64
2022/04/01 08:29:27;;;;;;;;;;;;;;;19.47;29.30;96772.69;6320990;28;19919;-66
2022/04/01 08:32:30;;;;;;;;;;;;;;;17.91;31.66;96765.09;6321634;28;19920;-65
2022/04/01 08:35:31;;;;;;;;;;;;;;;16.90;33.72;96753.34;6321632;28;20304;-64
2022/04/01 08:38:33;;;;;;;;;;;;;;;16.73;34.22;96761.97;6321411;28;19920;-64
2022/04/01 08:41:37;;;;;;;;;;;;;;;17.60;32.94;96753.00;6320485;28;19927;-65
2022/04/01 08:44:44;;;;;;;;;;;;;;;18.81;30.80;96734.06;6321618;28;19920;-65
2022/04/01 08:47:48;;;;;;;;;;;;;;;18.54;31.27;96755.44;6321355;28;19919;-65
2022/04/01 08:50:50;;;;;;;;;;;;;;;18.08;31.78;96744.81;6321567;28;19920;-66
2022/04/01 08:53:53;;;;;;;;;;;;;;;17.53;32.88;96749.28;6321180;28;19920;-64
2022/04/01 08:56:54;;;;;;;;;;;;;;;17.88;32.59;96743.25;6320641;28;19927;-64
2022/04/01 08:59:59;;;;;;;;;;;;;;;18.90;30.95;96742.13;6319529;28;19920;-64
2022/04/01 09:03:02;;;;;;;;;;;;;;;19.42;30.28;96750.16;6320893;28;19920;-65
2022/04/01 09:06:04;;;;;;;;;;;;;;;19.31;30.13;96742.44;6320519;28;19942;-65
2022/04/01 09:09:05;;;;;;;;;;;;;;;18.79;31.24;96744.03;6320448;28;19920;-64
2022/04/01 09:12:11;;;;;;;;;;;;;;;19.00;30.81;96742.91;6320541;28;19919;-64
2022/04/01 09:15:12;;;;;;;;;;;;;;;19.42;30.39;96747.47;6320675;28;19920;-64
2022/04/01 09:18:31;;;;;;;;;;;;;;;19.95;29.29;96746.44;6319840;28;20317;-66
2022/04/01 09:21:37;;;;;;;;;;;;;;;20.17;29.19;96729.84;6320345;28;19950;-65
2022/04/01 09:24:51;;;;;;;;;;;;;;;18.81;30.91;96736.72;6320623;28;19920;-64
2022/04/01 09:27:52;;;;;;;;;;;;;;;18.21;32.21;96738.31;6319871;28;19923;-64
2022/04/01 09:30:56;;;;;;;;;;;;;;;17.70;33.13;96725.38;6320765;28;19920;-65
2022/04/01 09:34:01;;;;;;;;;;;;;;;17.50;33.35;96735.28;6323983;28;19920;-65
2022/04/01 09:37:07;;;;;;;;;;;;;;;17.79;33.24;96760.94;6324096;28;19995;-63
2022/04/01 09:40:12;;;;;;;;;;;;;;;17.80;33.20;96732.50;6325943;28;20520;-63
2022/04/01 09:43:22;;;;;;;;;;;;;;;17.61;33.51;96746.72;6325542;28;19931;-66
2022/04/01 09:46:26;;;;;;;;;;;;;;;17.73;33.19;96729.56;6325169;28;19926;-66
2022/04/01 09:49:33;;;;;;;;;;;;;;;17.28;34.18;96731.13;6325058;28;19927;-66
2022/04/01 09:52:36;;;;;;;;;;;;;;;17.44;33.71;96735.84;6325236;28;19919;-66
2022/04/01 09:55:41;;;;;;;;;;;;;;;17.77;33.37;96749.56;6325194;28;20393;-66
2022/04/01 09:58:42;;;;;;;;;;;;;;;17.83;33.26;96738.38;6324531;28;20378;-65
2022/04/01 10:01:43;;;;;;;;;;;;;;;18.00;32.84;96736.72;6324534;28;19924;-67
2022/04/01 10:04:50;;;;;;;;;;;;;;;17.82;33.03;96731.38;6325162;28;19924;-65
2022/04/01 10:07:52;;;;;;;;;;;;;;;17.09;34.23;96743.66;6324851;28;19927;-65
2022/04/01 10:10:57;;;;;;;;;;;;;;;17.20;34.22;96739.00;6324920;28;19919;-64
2022/04/01 10:14:03;;;;;;;;;;;;;;;18.08;32.93;96743.97;6324777;28;20002;-65
2022/04/01 10:17:10;;;;;;;;;;;;;;;18.70;31.43;96744.94;6324887;28;20062;-65
2022/04/01 10:20:15;;;;;;;;;;;;;;;18.98;30.91;96731.53;6324319;28;19920;-65
2022/04/01 10:23:24;;;;;;;;;;;;;;;18.94;31.05;96740.81;6324833;28;19920;-65
2022/04/01 10:26:29;;;;;;;;;;;;;;;19.07;30.84;96742.09;6323723;28;19920;-64
2022/04/01 10:29:34;;;;;;;;;;;;;;;19.03;31.24;96746.06;6324116;28;19919;-64
2022/04/01 10:32:43;;;;;;;;;;;;;;;18.83;31.35;96734.75;6323964;28;20296;-65
2022/04/01 10:35:44;;;;;;;;;;;;;;;18.63;31.78;96738.56;6324363;28;20324;-66
2022/04/01 10:38:58;;;;;;;;;;;;;;;18.38;32.12;96729.50;6324437;28;19920;-65
2022/04/01 10:42:12;;;;;;;;;;;;;;;18.06;32.92;96727.31;6323963;28;20053;-65
2022/04/01 10:45:13;;;;;;;;;;;;;;;18.08;32.71;96723.50;6322896;28;19920;-66
2022/04/01 10:51:37;;;;;;;;;;;;;;;18.04;32.86;96705.34;6324122;28;19924;-65
2022/04/01 10:54:45;;;;;;;;;;;;;;;17.97;33.11;96720.22;6323567;28;19927;-65
2022/04/01 10:57:50;;;;;;;;;;;;;;;17.81;33.15;96737.69;6323896;28;19920;-64
2022/04/01 11:00:53;;;;;;;;;;;;;;;18.05;33.00;96733.63;6324111;28;19923;-65
2022/04/01 11:04:20;;;;;;;;;;;;;;;18.02;32.90;96717.97;6323208;28;20072;-64
2022/04/01 11:07:21;;;;;;;;;;;;;;;17.88;33.10;96733.44;6319816;28;19927;-65
2022/04/01 11:10:32;;;;;;;;;;;;;;;17.74;33.51;96740.06;6323510;28;19920;-65
2022/04/01 11:13:33;;;;;;;;;;;;;;;17.28;34.14;96730.31;6322720;28;19920;-64
2022/04/01 11:16:47;;;;;;;;;;;;;;;17.20;34.22;96727.53;6322847;28;20407;-65
2022/04/01 11:20:05;;;;;;;;;;;;;;;17.13;34.31;96737.91;6322271;28;19920;-65
2022/04/01 11:23:07;;;;;;;;;;;;;;;17.11;34.51;96728.41;6322765;28;19919;-64
2022/04/01 11:26:08;;;;;;;;;;;;;;;16.75;35.30;96728.13;6322514;28;19927;-64
2022/04/01 11:29:23;;;;;;;;;;;;;;;16.49;35.80;96736.66;6322291;28;20412;-65
2022/04/01 11:32:27;;;;;;;;;;;;;;;16.11;36.46;96761.38;6322621;28;19920;-65
2022/04/01 11:35:30;;;;;;;;;;;;;;;15.77;37.24;96756.41;6322236;28;20312;-65
2022/04/01 11:38:34;;;;;;;;;;;;;;;15.65;37.50;96734.41;6321372;28;19921;-64
2022/04/01 11:41:48;;;;;;;;;;;;;;;15.58;37.65;96746.50;6322761;28;20361;-65
2022/04/01 11:44:56;;;;;;;;;;;;;;;15.34;38.12;96736.22;6322431;28;19916;-65
2022/04/01 11:47:59;;;;;;;;;;;;;;;15.04;38.51;96753.78;6321339;28;20408;-64
2022/04/01 11:51:05;;;;;;;;;;;;;;;14.74;39.26;96757.19;6321790;28;19939;-65
2022/04/01 11:54:11;;;;;;;;;;;;;;;14.22;40.27;96758.81;6321750;28;19920;-66
2022/04/01 11:57:12;;;;;;;;;;;;;;;13.53;41.74;96774.03;6322175;28;20411;-65
2022/04/01 12:00:14;;;;;;;;;;;;;;;13.08;42.91;96768.69;6321662;28;19920;-65
2022/04/01 12:03:21;;;;;;;;;;;;;;;12.84;43.59;96750.28;6321354;28;19963;-65
2022/04/01 12:09:41;;;;;;;;;;;;;;;12.51;44.40;96776.47;6322052;28;19926;-66
2022/04/01 12:12:54;;;;;;;;;;;;;;;12.27;44.82;96765.06;6322212;28;19920;-64
2022/04/01 12:15:58;;;;;;;;;;;;;;;12.25;44.89;96777.53;6321320;28;19926;-65
2022/04/01 12:18:59;;;;;;;;;;;;;;;11.90;45.67;96775.66;6321150;28;19920;-65
2022/04/01 12:22:01;;;;;;;;;;;;;;;12.01;45.69;96785.44;6321533;28;19959;-65
2022/04/01 12:25:02;;;;;;;;;;;;;;;11.98;45.63;96778.59;6322856;28;19919;-64
2022/04/01 12:28:07;;;;;;;;;;;;;;;11.69;46.15;96785.88;6322367;28;20304;-65
2022/04/01 12:31:23;;;;;;;;;;;;;;;11.93;45.82;96778.06;6321970;28;20372;-65
2022/04/01 12:34:27;;;;;;;;;;;;;;;11.88;45.80;96806.56;6320532;28;19919;-65
2022/04/01 12:37:33;;;;;;;;;;;;;;;11.76;45.95;96787.16;6321148;28;20338;-65
2022/04/01 12:40:43;;;;;;;;;;;;;;;12.12;45.05;96786.34;6321313;28;19926;-66
2022/04/01 12:43:53;;;;;;;;;;;;;;;12.39;44.50;96774.72;6321561;28;19947;-66
2022/04/01 12:46:57;;;;;;;;;;;;;;;12.47;44.24;96776.81;6320468;28;19985;-65
2022/04/01 12:49:58;;;;;;;;;;;;;;;12.22;44.66;96773.31;6320885;28;20309;-65
2022/04/01 12:53:10;;;;;;;;;;;;;;;12.17;44.71;96774.59;6321126;28;19920;-65
2022/04/01 12:56:18;;;;;;;;;;;;;;;12.20;44.83;96763.81;6320511;28;20305;-65
2022/04/01 12:59:21;;;;;;;;;;;;;;;12.18;44.92;96781.59;6320277;28;19947;-65
2022/04/01 13:02:25;;;;;;;;;;;;;;;12.20;44.73;96784.94;6320773;28;19919;-67
2022/04/01 13:05:29;;;;;;;;;;;;;;;12.16;44.65;96788.75;6320688;28;19935;-65
2022/04/01 13:08:33;;;;;;;;;;;;;;;11.98;45.06;96794.41;6319731;28;19924;-66
2022/04/01 13:11:46;;;;;;;;;;;;;;;11.82;45.55;96791.16;6319520;28;19949;-65
2022/04/01 13:15:10;;;;;;;;;;;;;;;11.71;45.93;96801.59;6320867;28;20334;-67
2022/04/01 13:18:23;;;;;;;;;;;;;;;11.61;46.32;96804.91;6320700;28;19997;-65
2022/04/01 13:21:26;;;;;;;;;;;;;;;11.44;46.62;96798.16;6320478;28;20377;-65
2022/04/01 13:24:37;;;;;;;;;;;;;;;11.92;45.86;96823.84;6320622;28;19920;-65
2022/04/01 13:27:38;;;;;;;;;;;;;;;11.80;45.91;96820.25;6320242;28;19920;-66
2022/04/01 13:30:39;;;;;;;;;;;;;;;11.71;46.20;96830.59;6320244;28;19920;-66
2022/04/01 13:33:46;;;;;;;;;;;;;;;11.56;46.28;96828.09;6320663;28;19931;-68
2022/04/01 13:36:52;;;;;;;;;;;;;;;11.50;46.38;96823.25;6319962;28;19920;-67
2022/04/01 13:39:55;;;;;;;;;;;;;;;11.52;46.35;96825.75;6320488;28;19920;-64
2022/04/01 13:42:57;;;;;;;;;;;;;;;11.54;46.21;96824.69;6319533;28;20412;-65
2022/04/01 13:46:01;;;;;;;;;;;;;;;11.40;46.40;96824.81;6318914;28;19924;-64
2022/04/01 13:49:07;;;;;;;;;;;;;;;11.33;46.83;96831.47;6320257;28;19919;-65
2022/04/01 13:52:13;;;;;;;;;;;;;;;11.12;47.11;96828.50;6320529;28;20049;-65
2022/04/01 13:55:18;;;;;;;;;;;;;;;11.07;47.18;96810.38;6319999;28;19978;-64
2022/04/01 13:58:19;;;;;;;;;;;;;;;11.11;47.13;96806.59;6319475;28;20448;-64
2022/04/01 14:01:21;;;;;;;;;;;;;;;11.06;47.25;96813.13;6320156;28;19927;-64
2022/04/01 14:04:26;;;;;;;;;;;;;;;10.76;47.84;96822.97;6320008;28;19975;-65
2022/04/01 14:07:37;;;;;;;;;;;;;;;10.57;48.41;96827.75;6320422;28;19920;-65
2022/04/01 14:10:43;;;;;;;;;;;;;;;10.44;48.74;96822.44;6320117;28;19920;-65
2022/04/01 14:13:49;;;;;;;;;;;;;;;10.29;49.42;96818.19;6319940;28;19920;-65
2022/04/01 14:16:53;;;;;;;;;;;;;;;10.08;49.88;96836.16;6320149;28;19920;-64
2022/04/01 14:19:56;;;;;;;;;;;;;;;9.85;50.51;96833.19;6322280;28;20032;-65
2022/04/01 14:22:58;;;;;;;;;;;;;;;9.68;50.92;96825.50;6324271;28;19931;-65
2022/04/01 14:26:04;;;;;;;;;;;;;;;9.62;51.15;96828.50;6323777;28;19926;-65
2022/04/01 14:32:31;;;;;;;;;;;;;;;9.40;51.66;96835.09;6323857;28;19926;-65
2022/04/01 14:35:34;;;;;;;;;;;;;;;9.21;51.96;96824.00;6323240;28;19920;-65
2022/04/01 14:38:39;;;;;;;;;;;;;;;9.24;52.06;96831.69;6323990;28;19920;-65
2022/04/01 14:41:44;;;;;;;;;;;;;;;9.10;52.54;96832.50;6324256;28;20389;-65
2022/04/01 14:44:45;;;;;;;;;;;;;;;9.12;52.50;96833.28;6323531;28;19919;-65
2022/04/01 14:47:51;;;;;;;;;;;;;;;8.85;52.99;96838.38;6324126;28;19920;-64
2022/04/01 14:50:53;;;;;;;;;;;;;;;8.75;53.29;96852.97;6323519;28;19926;-66
2022/04/01 14:53:54;;;;;;;;;;;;;;;8.92;53.40;96860.69;6323744;28;20309;-64
2022/04/01 14:56:58;;;;;;;;;;;;;;;8.95;53.21;96855.28;6323694;28;19920;-65
2022/04/01 15:00:02;;;;;;;;;;;;;;;8.88;53.35;96861.78;6323780;28;19920;-65
2022/04/01 15:03:08;;;;;;;;;;;;;;;8.81;53.48;96857.84;6323695;28;19981;-65
2022/04/01 15:06:11;;;;;;;;;;;;;;;8.65;53.86;96863.13;6323499;28;19920;-64
2022/04/01 15:09:12;;;;;;;;;;;;;;;8.55;54.32;96885.59;6323013;28;19919;-65
2022/04/01 15:12:13;;;;;;;;;;;;;;;8.44;54.68;96885.34;6322980;28;19920;-64
2022/04/01 15:15:15;;;;;;;;;;;;;;;8.38;54.64;96893.50;6322956;28;19927;-65
2022/04/01 15:18:18;;;;;;;;;;;;;;;8.42;54.67;96895.91;6323227;28;19920;-65
2022/04/01 15:21:22;;;;;;;;;;;;;;;8.45;54.61;96885.25;6322334;28;19920;-64
2022/04/01 15:24:25;;;;;;;;;;;;;;;8.36;55.07;96893.59;6322175;28;19920;-65
2022/04/01 15:27:26;;;;;;;;;;;;;;;8.19;55.07;96896.31;6322310;28;19927;-65
2022/04/01 15:30:28;;;;;;;;;;;;;;;8.02;55.92;96903.31;6322038;28;19926;-65
2022/04/01 15:33:34;;;;;;;;;;;;;;;8.05;55.73;96897.91;6322878;28;20026;-65
2022/04/01 15:36:43;;;;;;;;;;;;;;;7.88;56.44;96903.22;6322929;28;19943;-65
2022/04/01 15:39:48;;;;;;;;;;;;;;;7.77;56.32;96900.31;6322816;28;19920;-64
2022/04/01 15:42:56;;;;;;;;;;;;;;;7.90;56.37;96911.84;6322397;28;19920;-64
2022/04/01 15:46:05;;;;;;;;;;;;;;;7.88;56.46;96924.16;6322463;28;19927;-65
2022/04/01 15:49:08;;;;;;;;;;;;;;;7.84;56.30;96918.25;6320150;28;19931;-65
2022/04/01 15:52:11;;;;;;;;;;;;;;;7.61;57.11;96915.97;6322031;28;19923;-65
2022/04/01 15:55:12;;;;;;;;;;;;;;;7.51;57.57;96926.09;6320797;28;20407;-65
2022/04/01 15:58:16;;;;;;;;;;;;;;;7.50;57.32;96924.41;6322537;28;19920;-65
2022/04/01 16:01:22;;;;;;;;;;;;;;;7.35;57.71;96925.19;6321664;28;19942;-66
2022/04/01 16:04:23;;;;;;;;;;;;;;;7.29;57.97;96931.56;6320723;28;19927;-64
2022/04/01 16:07:29;;;;;;;;;;;;;;;7.10;58.39;96936.88;6321517;28;19919;-64
2022/04/01 16:10:33;;;;;;;;;;;;;;;7.10;58.94;96942.13;6321511;28;19919;-66
2022/04/01 16:13:36;;;;;;;;;;;;;;;6.77;59.25;96938.56;6321999;28;19924;-66
2022/04/01 16:16:39;;;;;;;;;;;;;;;6.66;59.63;96942.53;6321587;28;19919;-64
2022/04/01 16:19:48;;;;;;;;;;;;;;;6.37;59.91;96949.16;6322019;28;20392;-65
2022/04/01 16:22:51;;;;;;;;;;;;;;;6.44;60.43;96947.94;6320189;28;19920;-65